createdAt,value
2017-09-06T00:01:39.110Z,91.10
2017-09-06T00:04:06.854Z,91.40
2017-09-06T00:06:34.502Z,91.50
2017-09-06T00:09:02.208Z,91.50
2017-09-06T00:11:30.082Z,91.60
2017-09-06T00:13:59.290Z,91.80
2017-09-06T00:16:27.332Z,91.80
2017-09-06T00:18:55.247Z,92.00
2017-09-06T00:21:23.271Z,92.00
2017-09-06T00:23:51.442Z,92.10
2017-09-06T00:26:20.475Z,92.20
2017-09-06T00:28:48.301Z,92.30
2017-09-06T00:31:15.995Z,92.40
2017-09-06T00:33:44.034Z,92.50
2017-09-06T00:36:11.933Z,92.50
2017-09-06T00:38:39.869Z,92.60
2017-09-06T00:41:07.940Z,92.50
2017-09-06T00:43:35.914Z,92.60
2017-09-06T00:46:03.622Z,92.60
2017-09-06T00:48:31.977Z,92.80
2017-09-06T00:51:00.249Z,92.90
2017-09-06T00:53:28.842Z,93.00
2017-09-06T00:55:56.546Z,93.20
2017-09-06T00:58:24.213Z,93.20
2017-09-06T01:00:51.895Z,93.30
2017-09-06T01:03:19.545Z,93.40
2017-09-06T01:05:47.230Z,93.40
2017-09-06T01:08:14.862Z,93.30
2017-09-06T01:10:42.591Z,93.50
2017-09-06T01:13:10.270Z,93.50
2017-09-06T01:15:38.298Z,93.50
2017-09-06T01:18:05.994Z,93.70
2017-09-06T01:20:34.454Z,93.50
2017-09-06T01:23:02.170Z,93.50
2017-09-06T01:25:29.826Z,93.20
2017-09-06T01:27:57.505Z,93.30
2017-09-06T01:30:25.154Z,93.20
2017-09-06T01:32:53.062Z,93.20
2017-09-06T01:35:20.757Z,93.30
2017-09-06T01:37:48.414Z,93.20
2017-09-06T01:40:16.102Z,93.20
2017-09-06T01:42:43.751Z,93.30
2017-09-06T01:45:11.594Z,93.10
2017-09-06T01:47:40.026Z,92.90
2017-09-06T01:50:07.701Z,92.90
2017-09-06T01:52:35.391Z,92.70
2017-09-06T01:55:03.066Z,92.70
2017-09-06T01:57:30.870Z,92.60
2017-09-06T01:59:58.546Z,92.60
2017-09-06T02:02:26.247Z,92.50
2017-09-06T02:04:53.910Z,92.50
2017-09-06T02:07:21.541Z,92.50
2017-09-06T02:09:49.201Z,92.50
2017-09-06T02:12:16.838Z,92.50
2017-09-06T02:14:44.527Z,92.50
2017-09-06T02:17:12.163Z,92.50
2017-09-06T02:19:40.054Z,92.50
2017-09-06T02:22:07.697Z,92.50
2017-09-06T02:24:35.369Z,92.60
2017-09-06T02:27:03.031Z,92.50
2017-09-06T02:29:30.676Z,92.50
2017-09-06T02:31:58.347Z,92.60
2017-09-06T02:34:25.993Z,92.60
2017-09-06T02:36:53.718Z,92.60
2017-09-06T02:39:21.354Z,92.60
2017-09-06T02:41:49.087Z,92.60
2017-09-06T02:44:16.758Z,92.50
2017-09-06T02:46:44.415Z,92.70
2017-09-06T02:49:12.106Z,92.80
2017-09-06T02:51:39.762Z,92.70
2017-09-06T02:54:07.468Z,92.50
2017-09-06T02:56:35.132Z,92.50
2017-09-06T02:59:02.782Z,92.40
2017-09-06T03:01:30.462Z,92.30
2017-09-06T03:03:58.410Z,92.40
2017-09-06T03:06:26.089Z,92.30
2017-09-06T03:08:53.745Z,92.30
2017-09-06T03:11:21.446Z,92.20
2017-09-06T03:13:49.100Z,92.20
2017-09-06T03:16:16.746Z,92.20
2017-09-06T03:18:44.425Z,92.10
2017-09-06T03:21:12.073Z,92.10
2017-09-06T03:23:39.758Z,92.20
2017-09-06T03:26:07.407Z,92.10
2017-09-06T03:28:35.092Z,92.20
2017-09-06T03:31:02.746Z,92.30
2017-09-06T03:33:30.382Z,92.40
2017-09-06T03:35:58.060Z,92.40
2017-09-06T03:38:25.717Z,92.40
2017-09-06T03:40:53.382Z,92.40
2017-09-06T03:43:21.018Z,92.10
2017-09-06T03:45:48.707Z,92.10
2017-09-06T03:48:16.354Z,92.20
2017-09-06T03:50:43.998Z,92.30
2017-09-06T03:53:11.663Z,92.30
2017-09-06T03:55:39.303Z,92.20
2017-09-06T03:58:06.970Z,92.10
2017-09-06T04:00:34.647Z,92.10
2017-09-06T04:03:02.355Z,92.20
2017-09-06T04:05:29.999Z,92.20
2017-09-06T04:07:57.661Z,92.10
2017-09-06T04:10:25.327Z,92.00
2017-09-06T04:12:52.964Z,92.00
2017-09-06T04:15:21.462Z,92.00
2017-09-06T04:17:49.547Z,91.90
2017-09-06T04:20:17.936Z,91.90
2017-09-06T04:22:46.606Z,92.00
2017-09-06T04:25:14.973Z,91.90
2017-09-06T04:27:42.972Z,91.80
2017-09-06T04:30:11.068Z,91.90
2017-09-06T04:32:39.205Z,92.00
2017-09-06T04:35:07.171Z,92.00
2017-09-06T04:37:34.837Z,92.10
2017-09-06T04:40:02.490Z,92.40
2017-09-06T04:42:30.362Z,92.50
2017-09-06T04:44:58.008Z,92.60
2017-09-06T04:47:25.654Z,92.80
2017-09-06T04:49:53.462Z,92.80
2017-09-06T04:52:21.211Z,92.90
2017-09-06T04:54:48.882Z,92.90
2017-09-06T04:57:16.522Z,92.80
2017-09-06T04:59:44.201Z,92.80
2017-09-06T05:02:11.874Z,93.20
2017-09-06T05:04:40.482Z,92.90
2017-09-06T05:07:08.166Z,93.00
2017-09-06T05:09:35.810Z,93.00
2017-09-06T05:12:03.496Z,93.00
2017-09-06T05:14:31.130Z,93.00
2017-09-06T05:16:59.063Z,92.90
2017-09-06T05:19:26.857Z,92.90
2017-09-06T05:21:54.511Z,93.00
2017-09-06T05:24:22.587Z,93.50
2017-09-06T05:26:50.228Z,93.60
2017-09-06T05:29:17.885Z,93.60
2017-09-06T05:31:45.533Z,93.50
2017-09-06T05:34:13.434Z,93.60
2017-09-06T05:36:41.078Z,93.40
2017-09-06T05:39:09.368Z,93.40
2017-09-06T05:41:37.066Z,93.40
2017-09-06T05:44:04.728Z,93.40
2017-09-06T05:46:32.479Z,93.30
2017-09-06T05:49:01.064Z,93.50
2017-09-06T05:51:28.988Z,93.30
2017-09-06T05:53:56.633Z,93.20
2017-09-06T05:56:25.401Z,93.30
2017-09-06T05:58:53.110Z,93.40
2017-09-06T06:01:20.772Z,93.50
2017-09-06T06:03:48.454Z,93.30
2017-09-06T06:06:16.094Z,93.60
2017-09-06T06:08:43.780Z,93.00
2017-09-06T06:11:11.423Z,92.40
2017-09-06T06:13:39.073Z,92.40
2017-09-06T06:16:06.742Z,92.10
2017-09-06T06:18:34.971Z,92.40
2017-09-06T06:21:02.650Z,91.90
2017-09-06T06:23:30.308Z,91.60
2017-09-06T06:25:58.161Z,91.50
2017-09-06T06:28:42.611Z,91.50
2017-09-06T06:31:11.206Z,91.40
2017-09-06T06:33:38.866Z,91.40
2017-09-06T06:36:06.518Z,91.30
2017-09-06T06:38:34.187Z,91.20
2017-09-06T06:41:01.830Z,91.20
2017-09-06T06:43:29.496Z,91.20
2017-09-06T06:45:57.150Z,91.10
2017-09-06T06:48:25.055Z,91.10
2017-09-06T06:50:52.703Z,90.90
2017-09-06T06:53:20.353Z,90.80
2017-09-06T06:55:48.039Z,90.70
2017-09-06T06:58:15.701Z,90.40
2017-09-06T07:00:43.390Z,90.10
2017-09-06T07:03:11.067Z,89.10
2017-09-06T07:05:38.819Z,87.90
2017-09-06T07:08:06.466Z,86.80
2017-09-06T07:10:34.114Z,86.70
2017-09-06T07:13:01.807Z,86.70
2017-09-06T07:15:29.468Z,85.60
2017-09-06T07:17:57.140Z,83.40
2017-09-06T07:20:24.792Z,82.60
2017-09-06T07:22:52.731Z,79.50
2017-09-06T07:25:20.381Z,77.20
2017-09-06T07:27:48.010Z,78.70
2017-09-06T07:30:15.671Z,78.80
2017-09-06T07:32:44.129Z,78.80
2017-09-06T07:35:13.807Z,78.70
2017-09-06T07:37:43.814Z,80.30
2017-09-06T07:40:12.776Z,81.40
2017-09-06T07:42:40.442Z,82.60
2017-09-06T07:45:08.112Z,83.10
2017-09-06T07:47:35.805Z,84.10
2017-09-06T07:50:03.468Z,86.10
2017-09-06T07:52:31.160Z,88.70
2017-09-06T07:54:58.806Z,89.70
2017-09-06T07:57:26.522Z,90.20
2017-09-06T07:59:54.189Z,90.50
2017-09-06T08:02:21.836Z,91.40
2017-09-06T08:04:49.515Z,91.50
2017-09-06T08:07:17.171Z,92.50
2017-09-06T08:09:44.926Z,92.90
2017-09-06T08:12:12.626Z,93.00
2017-09-06T08:14:40.549Z,93.20
2017-09-06T08:17:08.412Z,94.20
2017-09-06T08:19:36.257Z,95.10
2017-09-06T08:22:03.943Z,95.80
2017-09-06T08:24:31.624Z,95.90
2017-09-06T08:26:59.320Z,96.20
2017-09-06T08:29:26.984Z,95.80
2017-09-06T08:31:55.423Z,95.60
2017-09-06T08:34:23.110Z,95.50
2017-09-06T08:36:50.895Z,96.00
2017-09-06T08:39:18.583Z,95.90
2017-09-06T08:41:46.275Z,95.50
2017-09-06T08:44:13.953Z,94.90
2017-09-06T08:46:41.602Z,95.40
2017-09-06T08:49:09.334Z,95.30
2017-09-06T08:51:36.986Z,95.00
2017-09-06T08:54:05.123Z,94.80
2017-09-06T08:56:32.774Z,94.50
2017-09-06T08:59:00.429Z,94.20
2017-09-06T09:01:28.118Z,94.70
2017-09-06T09:03:55.767Z,94.40
2017-09-06T09:06:23.580Z,93.90
2017-09-06T09:08:51.237Z,93.70
2017-09-06T09:11:18.924Z,93.80
2017-09-06T09:13:46.582Z,93.30
2017-09-06T09:16:14.226Z,93.00
2017-09-06T09:18:41.950Z,92.50
2017-09-06T09:21:09.659Z,92.00
2017-09-06T09:23:37.338Z,91.30
2017-09-06T09:26:05.018Z,90.80
2017-09-06T09:28:32.881Z,90.90
2017-09-06T09:31:00.535Z,90.40
2017-09-06T09:33:28.891Z,90.00
2017-09-06T09:35:56.565Z,89.10
2017-09-06T09:38:24.205Z,88.60
2017-09-06T09:40:51.875Z,88.10
2017-09-06T09:43:19.535Z,85.20
2017-09-06T09:45:47.433Z,81.00
2017-09-06T09:48:15.079Z,77.60
2017-09-06T09:50:42.726Z,73.10
2017-09-06T09:53:10.419Z,73.60
2017-09-06T09:55:38.062Z,72.80
2017-09-06T09:58:05.805Z,71.40
2017-09-06T10:00:33.457Z,74.80
2017-09-06T10:03:01.154Z,74.70
2017-09-06T10:05:28.803Z,75.40
2017-09-06T10:07:56.458Z,75.70
2017-09-06T10:10:24.123Z,72.90
2017-09-06T10:12:51.791Z,72.00
2017-09-06T10:15:19.681Z,73.60
2017-09-06T10:17:47.345Z,72.00
2017-09-06T10:20:15.043Z,69.80
2017-09-06T10:22:42.755Z,72.90
2017-09-06T10:25:10.474Z,73.80
2017-09-06T10:27:38.150Z,72.40
2017-09-06T10:30:05.800Z,71.60
2017-09-06T10:32:33.931Z,70.60
2017-09-06T10:35:01.591Z,68.00
2017-09-06T10:37:29.239Z,67.30
2017-09-06T10:39:56.913Z,67.90
2017-09-06T10:42:24.577Z,68.20
2017-09-06T10:44:52.266Z,69.60
2017-09-06T10:47:19.926Z,69.10
2017-09-06T10:49:47.691Z,70.50
2017-09-06T10:52:15.342Z,69.50
2017-09-06T10:54:43.088Z,71.50
2017-09-06T10:57:10.758Z,70.20
2017-09-06T10:59:38.436Z,69.90
2017-09-06T11:02:06.117Z,71.00
2017-09-06T11:04:33.770Z,71.70
2017-09-06T11:07:01.702Z,71.60
2017-09-06T11:09:29.359Z,71.10
2017-09-06T11:11:57.010Z,70.30
2017-09-06T11:14:24.672Z,69.80
2017-09-06T11:16:52.325Z,72.60
2017-09-06T11:19:20.006Z,72.30
2017-09-06T11:21:47.666Z,73.40
2017-09-06T11:24:15.738Z,73.20
2017-09-06T11:26:43.387Z,73.10
2017-09-06T11:29:11.030Z,71.50
2017-09-06T11:31:38.705Z,69.70
2017-09-06T11:34:06.363Z,69.70
2017-09-06T11:36:34.036Z,66.00
2017-09-06T11:39:01.688Z,66.00
2017-09-06T11:41:29.493Z,63.00
2017-09-06T11:43:57.137Z,62.00
2017-09-06T11:46:24.768Z,61.80
2017-09-06T11:48:52.562Z,59.40
2017-09-06T11:51:20.207Z,57.60
2017-09-06T11:53:47.923Z,55.60
2017-09-06T11:56:15.633Z,56.00
2017-09-06T11:58:43.374Z,54.70
2017-09-06T12:01:11.030Z,54.40
2017-09-06T12:03:38.673Z,55.10
2017-09-06T12:06:06.362Z,55.50
2017-09-06T12:08:34.042Z,54.70
2017-09-06T12:11:01.739Z,54.80
2017-09-06T12:13:29.410Z,55.70
2017-09-06T12:15:57.248Z,56.90
2017-09-06T12:18:24.894Z,56.40
2017-09-06T12:20:52.544Z,58.20
2017-09-06T12:23:20.222Z,58.40
2017-09-06T12:25:47.883Z,57.90
2017-09-06T12:28:15.554Z,58.70
2017-09-06T12:30:43.269Z,59.40
2017-09-06T12:33:11.140Z,60.70
2017-09-06T12:35:38.847Z,60.30
2017-09-06T12:38:06.584Z,58.40
2017-09-06T12:40:34.273Z,59.30
2017-09-06T12:43:01.930Z,58.80
2017-09-06T12:45:29.647Z,59.10
2017-09-06T12:47:57.304Z,60.10
2017-09-06T12:50:25.021Z,59.90
2017-09-06T12:52:52.679Z,60.30
2017-09-06T12:55:20.359Z,61.90
2017-09-06T12:57:48.055Z,62.10
2017-09-06T13:00:15.767Z,62.70
2017-09-06T13:02:43.436Z,62.70
2017-09-06T13:05:11.099Z,61.20
2017-09-06T13:07:38.962Z,61.00
2017-09-06T13:10:06.602Z,61.60
2017-09-06T13:12:34.260Z,61.20
2017-09-06T13:15:01.950Z,62.30
2017-09-06T13:17:29.638Z,61.90
2017-09-06T13:19:57.325Z,66.40
2017-09-06T13:22:24.985Z,68.70
2017-09-06T13:24:53.001Z,70.90
2017-09-06T13:27:21.091Z,71.60
2017-09-06T13:29:48.807Z,71.20
2017-09-06T13:32:16.510Z,71.70
2017-09-06T13:34:44.190Z,72.30
2017-09-06T13:37:12.187Z,70.90
2017-09-06T13:39:39.870Z,69.50
2017-09-06T13:42:07.766Z,66.20
2017-09-06T13:44:35.442Z,64.80
2017-09-06T13:47:03.098Z,62.50
2017-09-06T13:49:31.541Z,61.70
2017-09-06T13:51:59.207Z,61.60
2017-09-06T13:54:26.893Z,61.90
2017-09-06T13:56:54.560Z,60.30
2017-09-06T13:59:22.235Z,58.70
2017-09-06T14:01:50.511Z,60.40
2017-09-06T14:04:18.242Z,61.80
2017-09-06T14:06:45.924Z,61.50
2017-09-06T14:09:13.592Z,60.20
2017-09-06T14:11:42.316Z,61.00
2017-09-06T14:14:10.052Z,61.00
2017-09-06T14:16:37.860Z,59.40
2017-09-06T14:19:05.544Z,58.40
2017-09-06T14:21:33.472Z,59.30
2017-09-06T14:24:01.206Z,59.50
2017-09-06T14:26:28.902Z,59.60
2017-09-06T14:28:56.625Z,60.90
2017-09-06T14:31:24.341Z,60.10
2017-09-06T14:33:52.082Z,59.70
2017-09-06T14:36:19.787Z,60.60
2017-09-06T14:38:47.490Z,57.50
2017-09-06T14:41:15.187Z,54.40
2017-09-06T14:43:43.755Z,55.30
2017-09-06T14:46:11.460Z,54.60
2017-09-06T14:48:39.198Z,53.30
2017-09-06T14:51:06.933Z,53.10
2017-09-06T14:53:34.594Z,51.90
2017-09-06T14:56:02.281Z,51.90
2017-09-06T14:58:29.933Z,51.20
2017-09-06T15:00:57.642Z,52.10
2017-09-06T15:03:25.335Z,51.80
2017-09-06T15:05:53.012Z,50.30
2017-09-06T15:08:20.683Z,51.50
2017-09-06T15:10:48.875Z,51.50
2017-09-06T15:13:16.581Z,52.00
2017-09-06T15:15:44.247Z,52.40
2017-09-06T15:18:12.189Z,53.10
2017-09-06T15:20:39.868Z,53.70
2017-09-06T15:23:07.540Z,53.70
2017-09-06T15:25:35.227Z,54.50
2017-09-06T15:28:02.883Z,54.40
2017-09-06T15:30:30.601Z,54.50
2017-09-06T15:32:58.329Z,55.80
2017-09-06T15:35:26.221Z,56.90
2017-09-06T15:37:53.902Z,57.90
2017-09-06T15:40:21.545Z,59.10
2017-09-06T15:42:49.236Z,59.50
2017-09-06T15:45:16.903Z,59.90
2017-09-06T15:47:44.623Z,61.00
2017-09-06T15:50:12.277Z,61.00
2017-09-06T15:52:40.150Z,62.20
2017-09-06T15:55:07.807Z,63.00
2017-09-06T15:57:35.491Z,63.80
2017-09-06T16:00:03.191Z,64.10
2017-09-06T16:02:30.839Z,64.10
2017-09-06T16:04:58.511Z,64.50
2017-09-06T16:07:26.190Z,64.60
2017-09-06T16:09:53.999Z,65.10
2017-09-06T16:12:21.647Z,64.40
2017-09-06T16:14:49.309Z,64.50
2017-09-06T16:17:16.990Z,64.80
2017-09-06T16:19:44.659Z,65.10
2017-09-06T16:22:12.345Z,64.80
2017-09-06T16:24:40.009Z,64.00
2017-09-06T16:27:07.934Z,64.60
2017-09-06T16:29:35.617Z,65.30
2017-09-06T16:32:03.303Z,65.30
2017-09-06T16:34:31.016Z,65.30
2017-09-06T16:36:58.683Z,66.20
2017-09-06T16:39:26.370Z,67.30
2017-09-06T16:41:54.069Z,67.30
2017-09-06T16:44:21.972Z,67.70
2017-09-06T16:46:49.662Z,68.20
2017-09-06T16:49:17.355Z,68.70
2017-09-06T16:51:45.132Z,69.50
2017-09-06T16:54:12.825Z,70.50
2017-09-06T16:56:40.503Z,70.50
2017-09-06T16:59:08.165Z,70.60
2017-09-06T17:01:36.022Z,70.60
2017-09-06T17:04:03.694Z,70.60
2017-09-06T17:06:31.530Z,71.40
2017-09-06T17:08:59.227Z,71.50
2017-09-06T17:11:26.951Z,71.50
2017-09-06T17:13:54.654Z,71.70
2017-09-06T17:16:22.555Z,72.70
2017-09-06T17:18:50.242Z,72.40
2017-09-06T17:21:17.913Z,72.50
2017-09-06T17:23:45.622Z,72.80
2017-09-06T17:26:13.273Z,72.90
2017-09-06T17:28:40.930Z,73.50
2017-09-06T17:31:08.655Z,73.40
2017-09-06T17:33:36.306Z,73.20
2017-09-06T17:36:03.980Z,73.30
2017-09-06T17:38:31.611Z,72.70
2017-09-06T17:40:59.626Z,73.10
2017-09-06T17:43:27.295Z,73.00
2017-09-06T17:45:54.944Z,73.70
2017-09-06T17:48:22.636Z,73.40
2017-09-06T17:50:50.327Z,73.80
2017-09-06T17:53:17.999Z,74.10
2017-09-06T17:55:45.651Z,72.90
2017-09-06T17:58:13.377Z,72.50
2017-09-06T18:00:41.196Z,71.50
2017-09-06T18:03:08.882Z,70.60
2017-09-06T18:05:37.320Z,67.60
2017-09-06T18:08:04.986Z,66.90
2017-09-06T18:10:32.658Z,67.10
2017-09-06T18:13:00.326Z,66.80
2017-09-06T18:15:28.246Z,67.00
2017-09-06T18:17:55.905Z,66.60
2017-09-06T18:20:23.603Z,66.90
2017-09-06T18:22:51.285Z,66.90
2017-09-06T18:25:18.931Z,67.10
2017-09-06T18:27:56.484Z,67.40
2017-09-06T18:30:38.853Z,66.10
2017-09-06T18:33:08.360Z,65.20
2017-09-06T18:35:36.297Z,64.80
2017-09-06T18:38:04.572Z,65.00
2017-09-06T18:40:32.318Z,65.30
2017-09-06T18:43:00.336Z,64.20
2017-09-06T18:45:28.222Z,64.30
2017-09-06T18:47:56.364Z,64.20
2017-09-06T18:50:24.438Z,64.20
2017-09-06T18:52:52.427Z,63.90
2017-09-06T18:55:20.143Z,63.10
2017-09-06T18:57:47.920Z,63.80
2017-09-06T19:00:15.977Z,64.70
2017-09-06T19:02:44.315Z,64.10
2017-09-06T19:05:12.224Z,63.70
2017-09-06T19:07:41.726Z,61.80
2017-09-06T19:10:09.480Z,61.90
2017-09-06T19:12:37.587Z,59.90
2017-09-06T19:15:05.353Z,59.80
2017-09-06T19:17:33.089Z,60.10
2017-09-06T19:20:01.099Z,60.10
2017-09-06T19:22:28.990Z,59.50
2017-09-06T19:24:57.019Z,59.10
2017-09-06T19:27:24.819Z,59.60
2017-09-06T19:29:52.802Z,59.30
2017-09-06T19:32:20.509Z,59.30
2017-09-06T19:34:48.725Z,58.90
2017-09-06T19:37:16.442Z,59.20
2017-09-06T19:39:44.096Z,59.40
2017-09-06T19:42:12.062Z,59.10
2017-09-06T19:44:39.742Z,59.10
2017-09-06T19:47:07.506Z,59.80
2017-09-06T19:49:35.531Z,59.90
2017-09-06T19:52:03.369Z,60.00
2017-09-06T19:54:31.184Z,60.80
2017-09-06T19:56:58.901Z,60.80
2017-09-06T19:59:26.927Z,60.60
2017-09-06T20:01:54.662Z,60.80
2017-09-06T20:04:23.352Z,61.10
2017-09-06T20:06:51.456Z,60.70
2017-09-06T20:09:19.235Z,61.00
2017-09-06T20:11:48.536Z,60.10
2017-09-06T20:14:16.747Z,60.90
2017-09-06T20:16:44.931Z,60.60
2017-09-06T20:19:13.888Z,61.00
2017-09-06T20:21:41.754Z,60.80
2017-09-06T20:24:09.553Z,61.10
2017-09-06T20:26:37.602Z,61.40
2017-09-06T20:29:05.711Z,61.70
2017-09-06T20:31:33.431Z,61.90
2017-09-06T20:34:01.348Z,61.90
2017-09-06T20:36:29.267Z,61.40
2017-09-06T20:38:56.979Z,61.70
2017-09-06T20:41:25.089Z,61.60
2017-09-06T20:43:52.775Z,61.10
2017-09-06T20:46:20.458Z,60.30
2017-09-06T20:48:48.117Z,60.20
2017-09-06T20:51:15.766Z,60.50
2017-09-06T20:53:45.083Z,60.70
2017-09-06T20:56:16.361Z,61.10
2017-09-06T20:58:44.534Z,61.00
2017-09-06T21:01:12.288Z,60.80
2017-09-06T21:03:40.021Z,61.00
2017-09-06T21:06:07.662Z,61.00
2017-09-06T21:08:35.314Z,61.30
2017-09-06T21:11:03.019Z,61.30
2017-09-06T21:13:30.686Z,61.60
2017-09-06T21:15:58.328Z,61.90
2017-09-06T21:18:25.990Z,62.20
2017-09-06T21:20:53.651Z,62.20
2017-09-06T21:23:21.340Z,62.60
2017-09-06T21:25:49.063Z,62.50
2017-09-06T21:28:16.747Z,62.20
2017-09-06T21:30:44.438Z,62.00
2017-09-06T21:33:12.090Z,62.10
2017-09-06T21:35:39.770Z,62.40
2017-09-06T21:38:07.422Z,62.10
2017-09-06T21:40:35.070Z,62.20
2017-09-06T21:43:02.746Z,62.30
2017-09-06T21:45:30.415Z,62.20
2017-09-06T21:47:58.126Z,62.80
2017-09-06T21:50:25.817Z,62.50
2017-09-06T21:52:53.478Z,62.40
2017-09-06T21:55:21.193Z,62.60
2017-09-06T21:57:49.603Z,62.50
2017-09-06T22:00:17.258Z,62.50
2017-09-06T22:02:44.934Z,62.80
2017-09-06T22:05:12.577Z,62.70
2017-09-06T22:07:40.222Z,62.30
2017-09-06T22:10:07.955Z,62.00
2017-09-06T22:12:35.610Z,62.00
2017-09-06T22:15:03.305Z,62.10
2017-09-06T22:17:31.009Z,62.50
2017-09-06T22:19:58.661Z,62.80
2017-09-06T22:22:26.333Z,62.70
2017-09-06T22:24:53.978Z,62.30
2017-09-06T22:27:22.794Z,62.50
2017-09-06T22:29:51.357Z,62.30
2017-09-06T22:32:20.506Z,62.30
2017-09-06T22:34:48.223Z,62.30
2017-09-06T22:37:15.905Z,62.80
2017-09-06T22:39:43.564Z,62.80
2017-09-06T22:42:11.262Z,63.10
2017-09-06T22:44:38.906Z,63.00
2017-09-06T22:47:06.556Z,63.10
2017-09-06T22:49:34.229Z,63.40
2017-09-06T22:52:01.897Z,63.50
2017-09-06T22:54:29.789Z,63.70
2017-09-06T22:56:57.441Z,65.00
2017-09-06T22:59:27.162Z,64.50
2017-09-06T23:01:55.959Z,64.30
2017-09-06T23:04:24.467Z,64.40
2017-09-06T23:06:54.904Z,64.90
2017-09-06T23:09:24.894Z,65.10
2017-09-06T23:11:54.745Z,65.30
2017-09-06T23:14:22.883Z,65.40
2017-09-06T23:16:54.312Z,65.90
2017-09-06T23:19:24.170Z,65.80
2017-09-06T23:21:51.830Z,66.10
2017-09-06T23:24:31.331Z,66.50
2017-09-06T23:27:03.129Z,66.60
2017-09-06T23:29:30.850Z,66.80
2017-09-06T23:31:58.498Z,66.80
2017-09-06T23:34:26.918Z,67.10
2017-09-06T23:36:54.585Z,67.10
2017-09-06T23:39:22.252Z,67.10
2017-09-06T23:41:49.898Z,67.20
2017-09-06T23:44:19.527Z,67.20
2017-09-06T23:46:47.182Z,67.70
2017-09-06T23:49:15.220Z,68.00
2017-09-06T23:51:43.190Z,67.70
2017-09-06T23:54:10.870Z,68.00
2017-09-06T23:56:38.930Z,68.10
2017-09-06T23:59:06.862Z,68.50
